Time;durP1;ratioP1;P1;durP2;ratioP2;P2;SDS_P1;SDS_P2;PMS_P1;PMS_P2;Temp;Humidity;BMP_temperature;BMP_pressure;BME280_temperature;BME280_humidity;BME280_pressure;Samples;Min_cycle;Max_cycle;Signal;HPM_P1;HPM_P2
2021/11/18 00:00:29;;;;;;;17.80;11.73;;;10.70;99.90;;;;;;4982836;28;20034;-81
2021/11/18 00:02:55;;;;;;;16.48;11.32;;;10.70;99.90;;;;;;4983562;28;20240;-81
2021/11/18 00:05:24;;;;;;;16.80;11.70;;;10.60;99.90;;;;;;4983609;28;20026;-81
2021/11/18 00:07:51;;;;;;;20.13;12.55;;;10.60;99.90;;;;;;4983598;28;20023;-81
2021/11/18 00:10:39;;;;;;;20.85;12.50;;;10.60;99.90;;;;;;4983901;28;20211;-82
2021/11/18 00:13:09;;;;;;;15.10;11.27;;;10.60;99.90;;;;;;4974195;28;20311;-82
2021/11/18 00:15:36;;;;;;;17.95;11.32;;;10.60;99.90;;;;;;4983909;28;20239;-82
2021/11/18 00:18:05;;;;;;;20.50;12.15;;;10.60;99.90;;;;;;4984012;28;20019;-82
2021/11/18 00:20:44;;;;;;;15.10;10.18;;;10.60;99.90;;;;;;4983846;28;20038;-82
2021/11/18 00:23:10;;;;;;;16.88;11.18;;;10.60;99.90;;;;;;4982194;28;20050;-82
2021/11/18 00:25:36;;;;;;;15.65;10.05;;;10.50;99.90;;;;;;4983727;28;20029;-81
2021/11/18 00:28:02;;;;;;;15.88;9.75;;;10.50;99.90;;;;;;4983292;28;20046;-81
2021/11/18 00:30:29;;;;;;;17.45;11.05;;;10.50;99.90;;;;;;4983745;28;20383;-81
2021/11/18 00:32:55;;;;;;;22.65;11.70;;;10.40;99.90;;;;;;4983370;28;20034;-81
2021/11/18 00:35:24;;;;;;;15.90;10.52;;;10.40;99.90;;;;;;4987018;28;20031;-80
2021/11/18 00:37:51;;;;;;;22.23;12.00;;;10.40;99.90;;;;;;4988284;28;20030;-82
2021/11/18 00:40:22;;;;;;;18.23;11.43;;;10.40;99.90;;;;;;4988274;28;20085;-82
2021/11/18 00:42:48;;;;;;;15.52;10.55;;;10.30;99.90;;;;;;4988166;28;20026;-81
2021/11/18 00:45:16;;;;;;;15.88;11.57;;;10.30;99.90;;;;;;4988593;28;20211;-81
2021/11/18 00:47:42;;;;;;;18.85;13.00;;;10.20;99.90;;;;;;4983461;28;20129;-80
2021/11/18 00:50:10;;;;;;;21.52;12.98;;;10.20;99.90;;;;;;4983519;28;20043;-81
2021/11/18 00:52:36;;;;;;;18.63;12.52;;;10.10;99.90;;;;;;4984258;28;20023;-83
2021/11/18 00:55:06;;;;;;;19.27;13.02;;;10.10;99.90;;;;;;4983280;28;20042;-81
2021/11/18 00:57:33;;;;;;;18.80;14.00;;;10.10;99.90;;;;;;4982773;28;20058;-82
2021/11/18 00:59:59;;;;;;;23.70;14.32;;;10.10;99.90;;;;;;4982771;28;20067;-80
2021/11/18 01:02:24;;;;;;;21.98;16.00;;;10.00;99.90;;;;;;4982772;28;20081;-82
2021/11/18 01:04:50;;;;;;;27.58;16.70;;;10.00;99.90;;;;;;4982645;28;20058;-82
2021/11/18 01:07:16;;;;;;;22.50;16.20;;;10.00;99.90;;;;;;4982559;28;20361;-81
2021/11/18 01:09:41;;;;;;;31.80;18.08;;;10.00;99.90;;;;;;4982174;28;20199;-81
2021/11/18 01:12:11;;;;;;;38.75;17.60;;;10.00;99.90;;;;;;4982563;28;20054;-80
2021/11/18 01:14:38;;;;;;;42.78;16.50;;;10.00;99.90;;;;;;4983061;28;20199;-82
2021/11/18 01:17:04;;;;;;;32.15;15.70;;;10.00;99.90;;;;;;4982719;28;20031;-81
2021/11/18 01:19:31;;;;;;;34.90;13.85;;;10.00;99.90;;;;;;4983096;28;20306;-81
2021/11/18 01:21:58;;;;;;;36.15;14.43;;;9.90;99.90;;;;;;4982791;28;20030;-81
2021/11/18 01:24:24;;;;;;;21.50;13.05;;;9.80;99.90;;;;;;4982271;28;20026;-81
2021/11/18 01:26:50;;;;;;;20.35;12.63;;;9.80;99.90;;;;;;4981451;28;20356;-82
2021/11/18 01:29:16;;;;;;;39.70;13.75;;;9.70;99.90;;;;;;4982577;28;20042;-82
2021/11/18 01:31:42;;;;;;;22.65;12.73;;;9.70;99.90;;;;;;4981873;28;20302;-82
2021/11/18 01:34:08;;;;;;;26.65;12.95;;;9.70;99.90;;;;;;4982486;28;20310;-82
2021/11/18 01:36:35;;;;;;;47.25;16.08;;;9.70;99.90;;;;;;4982712;28;20023;-81
2021/11/18 01:39:01;;;;;;;18.55;12.93;;;9.60;99.90;;;;;;4982206;28;20023;-82
2021/11/18 01:41:29;;;;;;;28.13;13.80;;;9.60;99.90;;;;;;4981601;28;20262;-82
2021/11/18 01:43:59;;;;;;;21.85;14.27;;;9.50;99.90;;;;;;4982976;28;20034;-81
2021/11/18 01:46:35;;;;;;;28.98;14.30;;;9.50;99.90;;;;;;4982670;28;20106;-82
2021/11/18 01:49:04;;;;;;;18.60;14.27;;;9.60;99.90;;;;;;4982526;28;20030;-82
2021/11/18 01:51:33;;;;;;;20.60;15.15;;;9.50;99.90;;;;;;4982326;28;20046;-81
2021/11/18 01:54:00;;;;;;;29.17;14.07;;;9.40;99.90;;;;;;4982295;28;20093;-81
2021/11/18 01:56:32;;;;;;;18.67;14.05;;;9.40;99.90;;;;;;4981815;28;20047;-81
2021/11/18 01:59:06;;;;;;;18.42;13.40;;;9.50;99.90;;;;;;4982462;28;20034;-81
2021/11/18 02:01:32;;;;;;;21.40;13.50;;;9.50;99.90;;;;;;4982166;28;20027;-81
2021/11/18 02:03:57;;;;;;;17.90;14.25;;;9.50;99.90;;;;;;4982778;28;20259;-81
2021/11/18 02:06:36;;;;;;;27.38;14.73;;;9.40;99.90;;;;;;4982414;28;20090;-81
2021/11/18 02:09:04;;;;;;;30.67;14.77;;;9.40;99.90;;;;;;4981959;28;20027;-81
2021/11/18 02:11:39;;;;;;;21.98;15.10;;;9.50;99.90;;;;;;4982230;28;20034;-81
2021/11/18 02:14:08;;;;;;;32.45;16.10;;;9.40;99.90;;;;;;4976575;28;20019;-81
2021/11/18 02:16:35;;;;;;;26.02;14.52;;;9.30;99.90;;;;;;4982197;28;20038;-81
2021/11/18 02:19:02;;;;;;;18.30;15.60;;;9.40;99.90;;;;;;4982853;28;20011;-81
2021/11/18 02:21:28;;;;;;;25.90;15.02;;;9.40;99.90;;;;;;4982687;28;20088;-81
2021/11/18 02:23:56;;;;;;;25.45;14.32;;;9.40;99.90;;;;;;4985934;28;20223;-82
2021/11/18 02:26:24;;;;;;;28.08;15.80;;;9.40;99.90;;;;;;4986022;28;20046;-81
2021/11/18 02:28:52;;;;;;;21.75;15.40;;;9.40;99.90;;;;;;4981579;28;20027;-82
2021/11/18 02:31:32;;;;;;;33.05;15.25;;;9.50;99.90;;;;;;4985694;28;20031;-81
2021/11/18 02:34:00;;;;;;;47.25;16.73;;;9.40;99.90;;;;;;4985712;28;20027;-81
2021/11/18 02:36:26;;;;;;;23.70;15.40;;;9.40;99.90;;;;;;4985370;28;20082;-82
2021/11/18 02:38:52;;;;;;;43.20;15.40;;;9.40;99.90;;;;;;4985673;28;20094;-81
2021/11/18 02:41:21;;;;;;;76.43;17.02;;;9.40;99.90;;;;;;4985495;28;20023;-82
2021/11/18 02:43:47;;;;;;;49.25;15.27;;;9.40;99.90;;;;;;4985491;28;20077;-81
2021/11/18 02:46:13;;;;;;;16.90;14.38;;;9.30;99.90;;;;;;4986024;28;20287;-82
2021/11/18 02:48:39;;;;;;;31.17;15.77;;;9.30;99.90;;;;;;4985331;28;20037;-82
2021/11/18 02:51:09;;;;;;;33.15;15.02;;;9.30;99.90;;;;;;4982747;28;20203;-82
2021/11/18 02:53:35;;;;;;;27.00;14.57;;;9.30;99.90;;;;;;4985101;28;20047;-81
2021/11/18 02:56:01;;;;;;;17.85;14.15;;;9.40;99.90;;;;;;4985213;28;20071;-81
2021/11/18 02:58:28;;;;;;;58.30;15.57;;;9.40;99.90;;;;;;4985901;28;20033;-81
2021/11/18 03:01:08;;;;;;;46.20;15.20;;;9.40;99.90;;;;;;4985292;28;20030;-82
2021/11/18 03:03:35;;;;;;;87.95;15.55;;;9.40;99.90;;;;;;4985084;28;20027;-82
2021/11/18 03:06:02;;;;;;;28.33;14.35;;;9.40;99.90;;;;;;4984920;28;20026;-81
2021/11/18 03:08:27;;;;;;;34.25;15.20;;;9.40;99.90;;;;;;4984941;28;20230;-82
2021/11/18 03:10:55;;;;;;;28.98;14.75;;;9.40;99.90;;;;;;4984673;28;20041;-82
2021/11/18 03:13:22;;;;;;;25.45;14.93;;;9.40;99.90;;;;;;4985336;28;20026;-82
2021/11/18 03:15:48;;;;;;;44.83;16.00;;;9.30;99.90;;;;;;4984306;28;20034;-81
2021/11/18 03:18:15;;;;;;;19.42;13.88;;;9.30;99.90;;;;;;4984902;28;20090;-81
2021/11/18 03:20:41;;;;;;;37.83;14.55;;;9.30;99.90;;;;;;4984976;28;20077;-81
2021/11/18 03:23:09;;;;;;;41.35;14.70;;;9.30;99.90;;;;;;4984912;28;20204;-82
2021/11/18 03:25:37;;;;;;;19.38;12.88;;;9.30;99.90;;;;;;4984713;28;20027;-81
2021/11/18 03:28:04;;;;;;;51.38;14.27;;;9.20;99.90;;;;;;4983615;28;20049;-82
2021/11/18 03:30:35;;;;;;;28.02;13.00;;;9.20;99.90;;;;;;4984352;28;20073;-82
2021/11/18 03:33:04;;;;;;;20.25;12.68;;;9.20;99.90;;;;;;4984165;28;20050;-81
2021/11/18 03:35:30;;;;;;;46.85;13.43;;;9.10;99.90;;;;;;4984509;28;20063;-82
2021/11/18 03:37:56;;;;;;;66.75;13.63;;;9.20;99.90;;;;;;4984587;28;20027;-82
2021/11/18 03:40:24;;;;;;;19.83;13.38;;;9.10;99.90;;;;;;4984444;28;20030;-82
2021/11/18 03:42:50;;;;;;;21.55;13.48;;;9.10;99.90;;;;;;4984779;28;20025;-82
2021/11/18 03:45:17;;;;;;;14.35;12.40;;;9.20;99.90;;;;;;4984458;28;20349;-82
2021/11/18 03:47:44;;;;;;;22.60;12.77;;;9.20;99.90;;;;;;4984430;28;20255;-82
2021/11/18 03:50:11;;;;;;;21.77;13.20;;;9.20;99.90;;;;;;4984179;28;20049;-82
2021/11/18 03:52:36;;;;;;;63.20;14.13;;;9.20;99.90;;;;;;4984009;28;20077;-81
2021/11/18 03:55:05;;;;;;;31.20;12.93;;;9.20;99.90;;;;;;4984535;28;20038;-81
2021/11/18 03:57:31;;;;;;;26.38;11.70;;;9.30;99.90;;;;;;4984021;28;20025;-82
2021/11/18 03:59:57;;;;;;;22.90;11.75;;;9.30;99.90;;;;;;4983676;28;20038;-82
2021/11/18 04:02:22;;;;;;;16.98;11.98;;;9.30;99.90;;;;;;4983749;28;20226;-81
2021/11/18 04:04:51;;;;;;;12.57;11.27;;;9.30;99.90;;;;;;4983373;28;20071;-81
2021/11/18 04:07:17;;;;;;;12.73;10.43;;;9.30;99.90;;;;;;4984002;28;20018;-81
2021/11/18 04:09:43;;;;;;;22.88;10.18;;;9.30;99.90;;;;;;4983958;28;20096;-82
2021/11/18 04:12:11;;;;;;;56.05;11.15;;;9.20;99.90;;;;;;4984018;28;20025;-82
2021/11/18 04:14:38;;;;;;;65.18;12.23;;;9.10;99.90;;;;;;4983880;28;20026;-81
2021/11/18 04:17:05;;;;;;;63.97;10.95;;;9.10;99.90;;;;;;4984175;28;20078;-81
2021/11/18 04:19:30;;;;;;;81.05;11.85;;;9.10;99.90;;;;;;4983505;28;20018;-81
2021/11/18 04:21:56;;;;;;;10.98;9.88;;;9.10;99.90;;;;;;4983122;28;20037;-82
2021/11/18 04:24:25;;;;;;;25.42;10.88;;;9.10;99.90;;;;;;4983905;28;20018;-81
2021/11/18 04:26:51;;;;;;;47.38;11.13;;;9.10;99.90;;;;;;4983602;28;20035;-82
2021/11/18 04:29:20;;;;;;;11.70;10.05;;;9.10;99.90;;;;;;4983457;28;20042;-82
2021/11/18 04:31:46;;;;;;;41.08;10.35;;;9.10;99.90;;;;;;4983559;28;20105;-82
2021/11/18 04:34:13;;;;;;;32.10;11.25;;;9.10;99.90;;;;;;4983577;28;20030;-82
2021/11/18 04:36:39;;;;;;;30.75;11.40;;;9.00;99.90;;;;;;4983057;28;20093;-81
2021/11/18 04:39:09;;;;;;;25.50;10.60;;;9.00;99.90;;;;;;4983520;28;20015;-82
2021/11/18 04:41:35;;;;;;;33.22;11.57;;;9.00;99.90;;;;;;4983531;28;20030;-82
2021/11/18 04:44:01;;;;;;;36.55;12.68;;;9.00;99.90;;;;;;4983507;28;20023;-82
2021/11/18 04:46:27;;;;;;;23.23;10.77;;;9.00;99.90;;;;;;4982965;28;20490;-81
2021/11/18 04:48:53;;;;;;;28.35;12.50;;;9.10;99.90;;;;;;4983709;28;20412;-81
2021/11/18 04:51:22;;;;;;;31.38;12.00;;;9.10;99.90;;;;;;4983813;28;20186;-81
2021/11/18 04:53:50;;;;;;;37.72;11.68;;;9.10;99.90;;;;;;4982923;28;20026;-81
2021/11/18 04:56:16;;;;;;;33.03;13.38;;;9.20;99.90;;;;;;4982836;28;20078;-82
2021/11/18 04:58:42;;;;;;;54.17;13.00;;;9.20;99.90;;;;;;4981624;28;20042;-82
2021/11/18 05:01:11;;;;;;;17.83;13.32;;;9.20;99.90;;;;;;4983066;28;20082;-81
2021/11/18 05:03:37;;;;;;;29.60;13.05;;;9.20;99.90;;;;;;4981643;28;20334;-81
2021/11/18 05:06:03;;;;;;;18.35;13.02;;;9.20;99.90;;;;;;4983408;28;20019;-82
2021/11/18 05:08:29;;;;;;;35.35;14.23;;;9.30;99.90;;;;;;4981893;28;20069;-82
2021/11/18 05:10:55;;;;;;;33.50;13.95;;;9.30;99.90;;;;;;4983333;28;20030;-81
2021/11/18 05:13:24;;;;;;;74.68;14.23;;;9.30;99.90;;;;;;4982666;28;20030;-81
2021/11/18 05:15:51;;;;;;;67.90;15.63;;;9.30;99.90;;;;;;4983381;28;20294;-81
2021/11/18 05:18:17;;;;;;;82.50;17.38;;;9.30;99.90;;;;;;4982780;28;20218;-82
2021/11/18 05:20:43;;;;;;;49.05;15.45;;;9.30;99.90;;;;;;4982574;28;20034;-81
2021/11/18 05:23:10;;;;;;;31.17;14.25;;;9.30;99.90;;;;;;4982731;28;20168;-82
2021/11/18 05:25:37;;;;;;;35.47;13.85;;;9.30;99.90;;;;;;4981504;28;20093;-82
2021/11/18 05:28:03;;;;;;;65.05;16.73;;;9.30;99.90;;;;;;4982602;28;20054;-81
2021/11/18 05:30:32;;;;;;;24.30;14.45;;;9.30;99.90;;;;;;4982418;28;20234;-82
2021/11/18 05:33:00;;;;;;;49.22;15.63;;;9.30;99.90;;;;;;4981972;28;20357;-82
2021/11/18 05:35:29;;;;;;;24.60;15.07;;;9.30;99.90;;;;;;4982765;28;20054;-82
2021/11/18 05:37:55;;;;;;;37.00;15.13;;;9.30;99.90;;;;;;4982334;28;20053;-81
2021/11/18 05:40:23;;;;;;;68.95;15.18;;;9.30;99.90;;;;;;4982932;28;20336;-82
2021/11/18 05:42:49;;;;;;;56.28;15.63;;;9.30;99.90;;;;;;4981925;28;20034;-82
2021/11/18 05:45:19;;;;;;;30.48;13.65;;;9.30;99.90;;;;;;4982989;28;20027;-81
2021/11/18 05:47:47;;;;;;;26.65;13.45;;;9.20;99.90;;;;;;4980157;28;20026;-82
2021/11/18 05:50:14;;;;;;;23.63;14.88;;;9.30;99.90;;;;;;4982618;28;20250;-82
2021/11/18 05:52:41;;;;;;;21.23;13.25;;;9.30;99.90;;;;;;4981644;28;20041;-82
2021/11/18 05:55:08;;;;;;;17.58;13.52;;;9.40;99.90;;;;;;4982920;28;20113;-82
2021/11/18 05:57:34;;;;;;;38.60;14.20;;;9.30;99.90;;;;;;4983932;28;20027;-82
2021/11/18 06:00:00;;;;;;;32.80;14.80;;;9.40;99.90;;;;;;4986857;28;20195;-82
2021/11/18 06:02:26;;;;;;;15.20;12.98;;;9.30;99.90;;;;;;4985963;28;20023;-82
2021/11/18 06:04:52;;;;;;;48.05;15.40;;;9.30;99.90;;;;;;4986182;28;20038;-82
2021/11/18 06:07:17;;;;;;;24.80;14.00;;;9.30;99.90;;;;;;4985977;28;20050;-81
2021/11/18 06:09:43;;;;;;;25.50;14.32;;;9.40;99.90;;;;;;4986384;28;20101;-81
2021/11/18 06:12:11;;;;;;;28.80;13.57;;;9.40;99.90;;;;;;4986190;28;20108;-81
2021/11/18 06:14:37;;;;;;;19.25;13.93;;;9.40;99.90;;;;;;4985943;28;20035;-82
2021/11/18 06:17:03;;;;;;;26.80;13.75;;;9.40;99.90;;;;;;4985253;28;20023;-82
2021/11/18 06:19:29;;;;;;;22.88;12.75;;;9.40;99.90;;;;;;4986437;28;20093;-81
2021/11/18 06:21:57;;;;;;;25.02;13.82;;;9.40;99.90;;;;;;4985988;28;20030;-82
2021/11/18 06:24:24;;;;;;;22.17;13.00;;;9.40;99.90;;;;;;4985593;28;20031;-81
2021/11/18 06:26:52;;;;;;;23.67;12.38;;;9.40;99.90;;;;;;4985676;28;20102;-82
2021/11/18 06:29:20;;;;;;;20.88;13.48;;;9.40;99.90;;;;;;4985874;28;20034;-82
2021/11/18 06:31:52;;;;;;;25.80;13.13;;;9.50;99.90;;;;;;4977850;28;20341;-82
2021/11/18 06:34:18;;;;;;;44.42;14.75;;;9.40;99.90;;;;;;4976787;28;20030;-82
2021/11/18 06:36:44;;;;;;;20.10;13.57;;;9.40;99.90;;;;;;4973840;28;20037;-81
2021/11/18 06:39:11;;;;;;;16.48;13.73;;;9.30;99.90;;;;;;4976281;28;20069;-81
2021/11/18 06:41:37;;;;;;;20.77;13.75;;;9.40;99.90;;;;;;4974114;28;20015;-82
2021/11/18 06:44:03;;;;;;;23.20;13.23;;;9.40;99.90;;;;;;4973976;28;20023;-81
2021/11/18 06:46:31;;;;;;;25.00;12.75;;;9.30;99.90;;;;;;4973595;28;20062;-81
2021/11/18 06:48:57;;;;;;;17.85;12.38;;;9.40;99.90;;;;;;4974036;28;20023;-81
2021/11/18 06:51:25;;;;;;;21.98;12.55;;;9.40;99.90;;;;;;4973920;28;20042;-82
2021/11/18 06:53:53;;;;;;;18.25;12.27;;;9.40;99.90;;;;;;4973858;28;20022;-82
2021/11/18 06:56:20;;;;;;;16.33;12.98;;;9.50;99.90;;;;;;4973622;28;20049;-82
2021/11/18 06:58:48;;;;;;;21.10;12.82;;;9.50;99.90;;;;;;4973870;28;20022;-82
2021/11/18 07:01:15;;;;;;;19.33;12.93;;;9.60;99.90;;;;;;4971273;28;20023;-82
2021/11/18 07:03:42;;;;;;;17.85;12.45;;;9.60;99.90;;;;;;4973570;28;20026;-83
2021/11/18 07:06:09;;;;;;;24.52;13.07;;;9.50;99.90;;;;;;4973830;28;20019;-83
2021/11/18 07:08:36;;;;;;;18.27;11.63;;;9.50;99.90;;;;;;4973877;28;20114;-83
2021/11/18 07:11:03;;;;;;;19.88;11.65;;;9.40;99.90;;;;;;4974290;28;20046;-83
2021/11/18 07:13:32;;;;;;;15.27;11.93;;;9.40;99.90;;;;;;4974210;28;20526;-83
2021/11/18 07:16:00;;;;;;;23.35;12.43;;;9.50;99.90;;;;;;4974144;28;20057;-83
2021/11/18 07:18:26;;;;;;;16.27;12.23;;;9.50;99.90;;;;;;4974091;28;20030;-83
2021/11/18 07:20:53;;;;;;;15.68;12.57;;;9.50;99.90;;;;;;4972644;28;20484;-83
2021/11/18 07:23:21;;;;;;;31.65;14.52;;;9.50;99.90;;;;;;4973856;28;20623;-83
2021/11/18 07:25:49;;;;;;;27.00;13.30;;;9.50;99.90;;;;;;4973993;28;20054;-83
2021/11/18 07:28:16;;;;;;;18.30;14.30;;;9.50;99.90;;;;;;4972778;28;20080;-83
2021/11/18 07:30:43;;;;;;;31.92;14.07;;;9.50;99.90;;;;;;4972410;28;20112;-83
2021/11/18 07:33:10;;;;;;;26.17;15.10;;;9.60;99.90;;;;;;4974000;28;20333;-83
2021/11/18 07:35:35;;;;;;;29.50;15.75;;;9.70;99.90;;;;;;4972493;28;20038;-83
2021/11/18 07:38:02;;;;;;;20.10;14.13;;;9.70;99.90;;;;;;4973731;28;20030;-83
2021/11/18 07:40:29;;;;;;;24.10;14.13;;;9.70;99.90;;;;;;4974368;28;20031;-92
2021/11/18 07:42:56;;;;;;;21.95;13.27;;;9.70;99.90;;;;;;4968980;28;20518;-90
2021/11/18 07:45:24;;;;;;;16.67;13.00;;;9.70;99.90;;;;;;4962111;28;20057;-88
2021/11/18 07:47:50;;;;;;;25.38;14.02;;;9.70;99.90;;;;;;4972714;28;20179;-87
2021/11/18 07:50:16;;;;;;;109.32;21.33;;;9.70;99.90;;;;;;4973268;28;20034;-91
2021/11/18 07:52:42;;;;;;;25.67;14.23;;;9.80;99.90;;;;;;4971906;28;20027;-90
2021/11/18 07:55:11;;;;;;;37.67;15.55;;;9.80;99.90;;;;;;4972607;28;20070;-91
2021/11/18 07:57:37;;;;;;;22.20;14.05;;;9.90;99.90;;;;;;4971889;28;20031;-88
2021/11/18 08:00:09;;;;;;;27.33;13.68;;;9.80;99.90;;;;;;4973333;28;20026;-86
2021/11/18 08:02:35;;;;;;;26.58;14.05;;;9.90;99.90;;;;;;4973243;28;20050;-88
2021/11/18 08:05:01;;;;;;;22.77;13.38;;;9.90;99.90;;;;;;4971556;28;20049;-90
2021/11/18 08:07:27;;;;;;;19.95;13.02;;;9.90;99.90;;;;;;4972800;28;20030;-90
2021/11/18 08:09:55;;;;;;;20.33;12.68;;;10.00;99.90;;;;;;4971258;28;20037;-86
2021/11/18 08:12:21;;;;;;;16.48;12.35;;;10.00;99.90;;;;;;4971209;28;20121;-88
2021/11/18 08:14:46;;;;;;;15.07;12.20;;;10.00;99.90;;;;;;4972155;28;20105;-88
2021/11/18 08:17:12;;;;;;;23.33;11.73;;;10.10;99.90;;;;;;4976696;28;20034;-89
2021/11/18 08:19:38;;;;;;;17.33;11.60;;;10.10;99.90;;;;;;4979913;28;20027;-93
2021/11/18 08:22:04;;;;;;;14.70;12.48;;;10.10;99.90;;;;;;4981660;28;20033;-92
2021/11/18 08:24:31;;;;;;;22.77;14.43;;;10.10;99.90;;;;;;4986497;28;20109;-91
2021/11/18 08:27:00;;;;;;;16.27;12.27;;;10.10;99.90;;;;;;4980262;28;20081;-89
2021/11/18 08:29:28;;;;;;;18.00;12.93;;;10.10;99.90;;;;;;4972104;28;20035;-87
2021/11/18 08:31:56;;;;;;;24.27;13.07;;;10.10;99.90;;;;;;4970984;28;20023;-87
2021/11/18 08:34:22;;;;;;;17.45;12.50;;;10.10;99.90;;;;;;4969547;28;20113;-87
2021/11/18 08:36:50;;;;;;;14.35;11.40;;;10.20;99.90;;;;;;4969905;28;20529;-87
2021/11/18 08:39:20;;;;;;;24.90;13.25;;;10.20;99.90;;;;;;4974863;28;20022;-87
2021/11/18 08:41:53;;;;;;;22.63;13.60;;;10.30;99.90;;;;;;4972564;28;20026;-87
2021/11/18 08:44:20;;;;;;;19.70;13.30;;;10.30;99.90;;;;;;4971371;28;20039;-87
2021/11/18 08:46:47;;;;;;;29.15;10.88;;;10.30;99.90;;;;;;4971761;28;20030;-87
2021/11/18 08:49:13;;;;;;;18.25;11.27;;;10.30;99.90;;;;;;4970346;28;20034;-87
2021/11/18 08:51:39;;;;;;;22.13;11.07;;;10.30;99.90;;;;;;4971070;28;20350;-86
2021/11/18 08:54:09;;;;;;;26.60;12.63;;;10.40;99.90;;;;;;4971330;28;20615;-87
2021/11/18 08:56:36;;;;;;;21.52;12.07;;;10.50;99.90;;;;;;4970018;28;20074;-87
2021/11/18 08:59:02;;;;;;;24.13;11.93;;;10.60;99.90;;;;;;4971394;28;20063;-87
2021/11/18 09:01:36;;;;;;;19.17;10.77;;;10.60;99.90;;;;;;4971796;28;20030;-88
2021/11/18 09:04:06;;;;;;;18.85;10.65;;;10.70;99.90;;;;;;4970118;28;20510;-92
2021/11/18 09:06:32;;;;;;;16.08;10.88;;;10.70;99.90;;;;;;4970764;28;20578;-86
2021/11/18 09:08:59;;;;;;;14.73;9.95;;;10.70;99.90;;;;;;4971756;28;20094;-91
2021/11/18 09:11:30;;;;;;;14.65;10.35;;;10.70;99.90;;;;;;4970109;28;20062;-90
2021/11/18 09:13:55;;;;;;;14.20;10.30;;;10.70;99.90;;;;;;4970697;28;20014;-89
2021/11/18 09:16:23;;;;;;;15.50;9.93;;;10.80;99.90;;;;;;4972154;28;20089;-92
2021/11/18 09:18:49;;;;;;;13.95;10.32;;;10.80;99.90;;;;;;4972312;28;20023;-93
2021/11/18 09:21:18;;;;;;;13.50;9.50;;;10.80;99.90;;;;;;4973350;28;20034;-93
2021/11/18 09:23:57;;;;;;;20.38;11.75;;;10.80;99.90;;;;;;4972459;28;20026;-91
2021/11/18 09:26:25;;;;;;;15.57;11.27;;;10.80;99.90;;;;;;4972779;28;20081;-86
2021/11/18 09:28:51;;;;;;;18.17;10.10;;;10.90;99.90;;;;;;4971412;28;20034;-88
2021/11/18 09:31:19;;;;;;;15.07;9.85;;;10.80;99.90;;;;;;4970776;28;20038;-89
2021/11/18 09:33:45;;;;;;;17.35;10.60;;;10.80;99.90;;;;;;4971162;28;20019;-92
2021/11/18 09:36:11;;;;;;;14.18;10.70;;;10.90;99.90;;;;;;4972250;28;20041;-86
2021/11/18 09:38:44;;;;;;;14.63;9.60;;;10.90;99.90;;;;;;4969566;28;20023;-86
2021/11/18 09:41:25;;;;;;;14.68;10.00;;;10.90;99.90;;;;;;4971147;28;20085;-86
2021/11/18 09:43:56;;;;;;;16.23;11.15;;;11.00;99.90;;;;;;4970967;28;20035;-92
2021/11/18 09:46:44;;;;;;;15.48;11.15;;;11.00;99.90;;;;;;4971400;28;20031;-93
2021/11/18 09:49:39;;;;;;;20.23;10.35;;;11.00;99.90;;;;;;4970310;28;20544;-86
2021/11/18 09:52:32;;;;;;;18.48;10.13;;;11.00;99.90;;;;;;4969045;28;20491;-86
2021/11/18 09:55:11;;;;;;;16.50;9.90;;;11.10;99.90;;;;;;4971221;28;20054;-92
2021/11/18 09:58:11;;;;;;;14.00;9.98;;;11.10;99.90;;;;;;4971748;28;20515;-88
2021/11/18 10:01:09;;;;;;;12.80;9.73;;;11.00;99.90;;;;;;4971343;28;20022;-94
2021/11/18 10:03:55;;;;;;;12.90;9.82;;;11.00;99.90;;;;;;4939834;28;20034;-92
2021/11/18 10:06:31;;;;;;;15.98;10.52;;;11.00;99.90;;;;;;4968625;28;20023;-94
2021/11/18 10:09:08;;;;;;;13.65;10.15;;;11.00;99.90;;;;;;4963220;28;20035;-93
2021/11/18 10:11:54;;;;;;;14.43;9.68;;;11.10;99.90;;;;;;4970424;28;20051;-90
2021/11/18 10:14:55;;;;;;;15.25;10.30;;;11.00;99.90;;;;;;4971613;28;20379;-91
2021/11/18 10:17:26;;;;;;;13.10;10.00;;;11.00;99.90;;;;;;4972062;28;20023;-93
2021/11/18 10:20:01;;;;;;;13.18;10.02;;;11.00;99.90;;;;;;4984721;28;20066;-91
2021/11/18 10:22:30;;;;;;;11.98;9.55;;;11.00;99.90;;;;;;4974162;28;20027;-92
2021/11/18 10:24:58;;;;;;;16.38;10.93;;;11.10;99.90;;;;;;4971167;28;20034;-90
2021/11/18 10:28:20;;;;;;;13.88;10.32;;;11.00;99.90;;;;;;4971888;28;20022;-78
2021/11/18 10:30:50;;;;;;;16.02;10.00;;;11.00;99.90;;;;;;4969043;28;20173;-77
2021/11/18 10:33:37;;;;;;;14.70;10.60;;;11.10;99.90;;;;;;4970799;28;20042;-87
2021/11/18 10:36:41;;;;;;;16.38;11.23;;;11.20;99.90;;;;;;4974668;28;20037;-87
2021/11/18 10:39:46;;;;;;;22.02;11.30;;;11.30;99.90;;;;;;4952071;28;20031;-87
2021/11/18 10:42:24;;;;;;;11.85;9.32;;;11.40;99.90;;;;;;4915177;29;20212;-88
2021/11/18 10:45:22;;;;;;;11.55;9.18;;;11.40;99.90;;;;;;4970448;28;20038;-87
2021/11/18 10:47:50;;;;;;;13.35;9.20;;;11.50;99.90;;;;;;4950876;28;20030;-88
2021/11/18 10:50:38;;;;;;;14.85;9.93;;;11.60;99.90;;;;;;4976295;28;20034;-87
2021/11/18 10:53:06;;;;;;;14.23;10.50;;;11.60;99.90;;;;;;4976605;28;20054;-88
2021/11/18 10:55:38;;;;;;;13.40;10.13;;;11.60;99.90;;;;;;4978454;28;20231;-88
2021/11/18 10:58:14;;;;;;;12.85;10.10;;;11.50;99.90;;;;;;4981136;28;20027;-88
2021/11/18 11:00:53;;;;;;;19.00;11.00;;;11.60;99.90;;;;;;4976153;28;20038;-87
2021/11/18 11:03:48;;;;;;;16.80;11.45;;;11.60;99.90;;;;;;4980515;28;20035;-88
2021/11/18 11:06:22;;;;;;;15.43;10.55;;;11.60;99.90;;;;;;4962010;28;20078;-85
2021/11/18 11:09:10;;;;;;;15.25;11.50;;;11.60;99.90;;;;;;4973570;28;20047;-85
2021/11/18 11:11:51;;;;;;;20.80;13.80;;;11.60;99.90;;;;;;4954756;28;20038;-85
2021/11/18 11:14:50;;;;;;;16.50;11.73;;;11.50;99.90;;;;;;4953969;28;20031;-84
2021/11/18 11:17:53;;;;;;;17.13;11.82;;;11.60;99.90;;;;;;4956011;29;20082;-84
2021/11/18 11:20:41;;;;;;;18.73;13.10;;;11.60;99.90;;;;;;4956429;29;20081;-85
2021/11/18 11:23:28;;;;;;;17.15;11.85;;;11.60;99.90;;;;;;4955354;29;20039;-85
2021/11/18 11:26:11;;;;;;;17.15;11.60;;;11.70;99.90;;;;;;4956428;28;20034;-85
2021/11/18 11:28:50;;;;;;;15.02;11.63;;;11.60;99.90;;;;;;4954397;28;20046;-85
2021/11/18 11:31:40;;;;;;;14.85;11.63;;;11.60;99.90;;;;;;4952221;29;20041;-85
2021/11/18 11:34:23;;;;;;;17.58;12.18;;;11.60;99.90;;;;;;4952013;29;20480;-84
2021/11/18 11:36:57;;;;;;;17.35;11.48;;;11.50;99.90;;;;;;4952604;29;20160;-85
2021/11/18 11:39:34;;;;;;;19.70;13.20;;;11.50;99.90;;;;;;4958303;28;20033;-85
2021/11/18 11:42:28;;;;;;;17.58;12.70;;;11.60;99.90;;;;;;4974838;28;20031;-85
2021/11/18 11:45:02;;;;;;;19.00;11.90;;;11.60;99.90;;;;;;4975919;28;20494;-84
2021/11/18 11:48:05;;;;;;;21.63;13.05;;;11.60;99.90;;;;;;4972800;28;20259;-85
2021/11/18 11:51:08;;;;;;;19.40;11.75;;;11.80;99.90;;;;;;4970998;28;20074;-85
2021/11/18 11:53:34;;;;;;;20.63;12.02;;;11.80;99.90;;;;;;4968783;28;20037;-85
2021/11/18 11:56:21;;;;;;;19.35;11.65;;;11.90;99.90;;;;;;4971229;28;20047;-85
2021/11/18 11:58:55;;;;;;;16.45;12.00;;;12.00;99.90;;;;;;4971579;28;20114;-85
2021/11/18 12:01:49;;;;;;;18.85;12.23;;;12.00;99.90;;;;;;4971202;28;20264;-85
2021/11/18 12:04:24;;;;;;;17.40;11.90;;;11.90;99.90;;;;;;4972494;28;20031;-84
2021/11/18 12:07:08;;;;;;;19.23;11.70;;;11.80;99.90;;;;;;4972231;28;20497;-85
2021/11/18 12:09:53;;;;;;;19.05;12.45;;;11.80;99.90;;;;;;4970749;28;20042;-85
2021/11/18 12:12:21;;;;;;;19.17;12.95;;;11.80;99.90;;;;;;4971644;28;20042;-85
2021/11/18 12:14:48;;;;;;;21.08;13.65;;;11.80;99.90;;;;;;4972279;28;20101;-84
2021/11/18 12:17:25;;;;;;;22.70;13.57;;;11.90;99.90;;;;;;4972391;28;20034;-82
2021/11/18 12:20:07;;;;;;;20.58;12.95;;;11.90;99.90;;;;;;4973320;28;20451;-81
2021/11/18 12:22:38;;;;;;;22.50;13.18;;;11.90;99.90;;;;;;4976511;28;20045;-81
2021/11/18 12:25:16;;;;;;;23.63;13.30;;;12.00;99.90;;;;;;4972586;28;20023;-85
2021/11/18 12:28:08;;;;;;;22.85;13.75;;;12.10;99.90;;;;;;4972284;28;20101;-87
2021/11/18 12:30:56;;;;;;;22.77;13.85;;;12.10;99.90;;;;;;4970709;28;20042;-84
2021/11/18 12:33:23;;;;;;;23.60;13.80;;;12.10;99.90;;;;;;4972014;28;20019;-85
2021/11/18 12:36:06;;;;;;;23.40;14.52;;;12.10;99.90;;;;;;4972233;28;20053;-82
2021/11/18 12:38:37;;;;;;;24.13;13.90;;;12.00;99.90;;;;;;4972268;28;20026;-84
2021/11/18 12:41:12;;;;;;;20.65;13.75;;;12.00;99.90;;;;;;4972084;28;20046;-84
2021/11/18 12:44:08;;;;;;;25.42;13.20;;;12.10;99.90;;;;;;4971496;28;20028;-88
2021/11/18 12:46:52;;;;;;;24.42;14.55;;;12.20;99.90;;;;;;4972049;28;20488;-85
2021/11/18 12:49:52;;;;;;;21.50;13.63;;;12.10;99.90;;;;;;4972007;28;20479;-85
2021/11/18 12:52:30;;;;;;;23.55;14.25;;;12.20;99.90;;;;;;4971227;28;20030;-83